Time,TemperatureF,DewpointF,PressureIn,WindDirection,WindDirectionDegrees,WindSpeedMPH,WindSpeedGustMPH,Humidity,HourlyPrecipIn,Conditions,Clouds,dailyrainin,SoftwareType,DateUTC
2013-01-28 00:01:00,39.1,34.0,29.47,SW,226,6.0,15.0,82,0.00,,,0.03,weatherlink.com 1.10,2013-01-28 00:01:00,
2013-01-28 00:16:00,38.9,34.0,29.48,West,260,8.0,15.0,82,0.00,,,0.03,weatherlink.com 1.10,2013-01-28 00:16:00,
2013-01-28 00:31:00,39.5,34.0,29.48,WNW,285,10.0,20.0,81,0.00,,,0.00,weatherlink.com 1.10,2013-01-28 00:31:00,
2013-01-28 00:46:00,39.9,34.0,29.48,West,264,4.0,17.0,80,0.00,,,0.00,weatherlink.com 1.10,2013-01-28 00:46:00,
2013-01-28 01:01:00,39.6,35.0,29.48,SW,222,6.0,18.0,82,0.00,,,0.00,weatherlink.com 1.10,2013-01-28 01:01:00,
2013-01-28 01:16:00,39.4,34.0,29.49,West,269,6.0,16.0,82,0.00,,,0.00,weatherlink.com 1.10,2013-01-28 01:16:00,
2013-01-28 01:32:00,39.3,35.0,29.50,West,269,4.0,13.0,83,0.00,,,0.00,weatherlink.com 1.10,2013-01-28 01:32:00,
2013-01-28 01:47:00,40.0,35.0,29.51,WSW,253,9.0,20.0,81,0.00,,,0.00,weatherlink.com 1.10,2013-01-28 01:47:00,
2013-01-28 02:02:00,39.8,34.0,29.52,SSW,197,7.0,17.0,80,0.00,,,0.00,weatherlink.com 1.10,2013-01-28 02:02:00,
2013-01-28 02:17:00,39.2,34.0,29.53,SW,222,8.0,16.0,82,0.00,,,0.00,weatherlink.com 1.10,2013-01-28 02:17:00,
2013-01-28 02:32:00,39.4,34.0,29.53,West,266,9.0,15.0,82,0.00,,,0.00,weatherlink.com 1.10,2013-01-28 02:32:00,
2013-01-28 02:47:00,39.6,34.0,29.53,West,276,5.0,15.0,81,0.00,,,0.00,weatherlink.com 1.10,2013-01-28 02:47:00,
2013-01-28 03:02:00,39.6,35.0,29.53,West,271,11.0,17.0,82,0.00,,,0.00,weatherlink.com 1.10,2013-01-28 03:02:00,
2013-01-28 03:17:00,39.7,35.0,29.52,SW,221,4.0,14.0,82,0.00,,,0.00,weatherlink.com 1.10,2013-01-28 03:17:00,
2013-01-28 03:32:00,39.7,34.0,29.52,WSW,249,5.0,14.0,81,0.00,,,0.00,weatherlink.com 1.10,2013-01-28 03:32:00,
2013-01-28 03:47:00,40.0,35.0,29.53,SW,222,10.0,19.0,81,0.00,,,0.00,weatherlink.com 1.10,2013-01-28 03:47:00,
2013-01-28 04:02:00,40.1,34.0,29.52,WNW,289,2.0,15.0,80,0.00,,,0.00,weatherlink.com 1.10,2013-01-28 04:02:00,
2013-01-28 04:17:00,39.9,34.0,29.53,WSW,243,2.0,12.0,80,0.00,,,0.00,weatherlink.com 1.10,2013-01-28 04:17:00,
2013-01-28 04:32:00,40.0,34.0,29.54,West,267,3.0,15.0,80,0.00,,,0.00,weatherlink.com 1.10,2013-01-28 04:32:00,
2013-01-28 04:47:00,40.6,35.0,29.54,South,190,6.0,19.0,79,0.00,,,0.00,weatherlink.com 1.10,2013-01-28 04:47:00,
2013-01-28 05:17:00,40.0,34.0,29.54,NW,325,2.0,12.0,80,0.00,,,0.00,weatherlink.com 1.10,2013-01-28 05:17:00,
2013-01-28 05:32:00,40.1,34.0,29.55,SW,219,3.0,12.0,79,0.00,,,0.00,weatherlink.com 1.10,2013-01-28 05:32:00,
2013-01-28 05:47:00,40.7,34.0,29.54,South,187,5.0,14.0,78,0.00,,,0.00,weatherlink.com 1.10,2013-01-28 05:47:00,
2013-01-28 06:02:00,41.0,34.0,29.54,WNW,302,1.0,12.0,77,0.00,,,0.00,weatherlink.com 1.10,2013-01-28 06:02:00,
2013-01-28 06:17:00,41.4,34.0,29.54,SSE,158,6.0,12.0,76,0.00,,,0.00,weatherlink.com 1.10,2013-01-28 06:17:00,
2013-01-28 06:32:00,42.0,35.0,29.53,SSW,193,4.0,14.0,75,0.00,,,0.00,weatherlink.com 1.10,2013-01-28 06:32:00,
2013-01-28 06:47:00,42.2,35.0,29.53,SSW,200,1.0,17.0,75,0.00,,,0.00,weatherlink.com 1.10,2013-01-28 06:47:00,
2013-01-28 07:02:00,42.6,35.0,29.52,SW,233,7.0,15.0,74,0.00,,,0.00,weatherlink.com 1.10,2013-01-28 07:02:00,
2013-01-28 07:17:00,42.9,35.0,29.52,WSW,257,6.0,18.0,73,0.00,,,0.00,weatherlink.com 1.10,2013-01-28 07:17:00,
2013-01-28 07:32:00,43.2,35.0,29.52,SSE,167,7.0,16.0,74,0.00,,,0.00,weatherlink.com 1.10,2013-01-28 07:32:00,
2013-01-28 08:02:00,43.1,36.0,29.50,SSW,193,8.0,17.0,75,0.00,,,0.00,weatherlink.com 1.10,2013-01-28 08:02:00,
2013-01-28 08:17:00,43.9,36.0,29.49,SE,135,8.0,18.0,74,0.00,,,0.00,weatherlink.com 1.10,2013-01-28 08:17:00,
2013-01-28 08:32:00,44.4,37.0,29.48,SSW,210,11.0,16.0,76,0.00,,,0.00,weatherlink.com 1.10,2013-01-28 08:32:00,
2013-01-28 08:48:00,45.1,38.0,29.47,West,260,9.0,21.0,76,0.00,,,0.00,weatherlink.com 1.10,2013-01-28 08:48:00,
2013-01-28 09:02:00,45.2,38.0,29.46,WSW,246,5.0,18.0,77,0.00,,,0.00,weatherlink.com 1.10,2013-01-28 09:02:00,
2013-01-28 09:18:00,44.6,38.0,29.45,SSE,164,0.0,15.0,79,0.00,,,0.00,weatherlink.com 1.10,2013-01-28 09:18:00,
2013-01-28 09:33:00,43.1,38.0,29.43,SSW,202,2.0,8.0,82,0.00,,,0.00,weatherlink.com 1.10,2013-01-28 09:33:00,
2013-01-28 09:48:00,43.5,39.0,29.41,South,181,6.0,16.0,83,0.00,,,0.00,weatherlink.com 1.10,2013-01-28 09:48:00,
2013-01-28 10:03:00,43.9,39.0,29.38,SSW,198,1.0,14.0,83,0.00,,,0.00,weatherlink.com 1.10,2013-01-28 10:03:00,
2013-01-28 10:18:00,43.8,39.0,29.36,South,183,4.0,10.0,84,0.00,,,0.00,weatherlink.com 1.10,2013-01-28 10:18:00,
2013-01-28 10:33:00,43.7,40.0,29.33,ENE,64,1.0,6.0,85,0.00,,,0.00,weatherlink.com 1.10,2013-01-28 10:33:00,
2013-01-28 10:48:00,43.7,40.0,29.30,SE,127,1.0,7.0,87,0.00,,,0.00,weatherlink.com 1.10,2013-01-28 10:48:00,
2013-01-28 11:03:00,45.3,41.0,29.28,NNE,23,3.0,14.0,85,0.00,,,0.00,weatherlink.com 1.10,2013-01-28 11:03:00,
2013-01-28 11:18:00,47.0,41.0,29.24,SSE,158,7.0,11.0,80,0.00,,,0.00,weatherlink.com 1.10,2013-01-28 11:18:00,
2013-01-28 11:33:00,48.5,42.0,29.22,SE,138,6.0,25.0,79,0.00,,,0.00,weatherlink.com 1.10,2013-01-28 11:33:00,
2013-01-28 11:48:00,49.3,42.0,29.19,South,181,11.0,23.0,77,0.00,,,0.00,weatherlink.com 1.10,2013-01-28 11:48:00,
2013-01-28 12:03:00,50.0,43.0,29.17,South,187,16.0,38.0,78,0.00,,,0.00,weatherlink.com 1.10,2013-01-28 12:03:00,
2013-01-28 12:18:00,50.2,44.0,29.15,South,174,10.0,32.0,79,0.00,,,0.00,weatherlink.com 1.10,2013-01-28 12:18:00,
2013-01-28 12:33:00,50.4,44.0,29.13,SSE,147,16.0,33.0,80,0.00,,,0.00,weatherlink.com 1.10,2013-01-28 12:33:00,
2013-01-28 12:48:00,52.0,45.0,29.10,South,169,13.0,32.0,77,0.00,,,0.00,weatherlink.com 1.10,2013-01-28 12:48:00,
2013-01-28 13:04:00,53.5,45.0,29.11,SSW,205,15.0,45.0,73,0.00,,,0.00,weatherlink.com 1.10,2013-01-28 13:04:00,
2013-01-28 13:19:00,51.3,44.0,29.11,ESE,103,10.0,29.0,75,0.00,,,0.00,weatherlink.com 1.10,2013-01-28 13:19:00,
2013-01-28 13:34:00,50.6,43.0,29.09,SW,235,5.0,25.0,74,0.00,,,0.00,weatherlink.com 1.10,2013-01-28 13:34:00,
2013-01-28 13:49:00,51.3,44.0,29.09,SSE,160,6.0,19.0,75,0.00,,,0.00,weatherlink.com 1.10,2013-01-28 13:49:00,
2013-01-28 14:04:00,52.0,44.0,29.10,SSW,199,16.0,30.0,74,0.00,,,0.00,weatherlink.com 1.10,2013-01-28 14:04:00,
2013-01-28 14:19:00,52.2,44.0,29.11,NW,323,5.0,19.0,74,0.00,,,0.00,weatherlink.com 1.10,2013-01-28 14:19:00,
2013-01-28 14:34:00,52.4,45.0,29.09,WNW,297,9.0,24.0,75,0.00,,,0.00,weatherlink.com 1.10,2013-01-28 14:34:00,
2013-01-28 14:49:00,52.5,44.0,29.09,West,267,3.0,23.0,74,0.00,,,0.00,weatherlink.com 1.10,2013-01-28 14:49:00,
2013-01-28 15:04:00,52.5,44.0,29.10,WSW,243,11.0,25.0,73,0.00,,,0.00,weatherlink.com 1.10,2013-01-28 15:04:00,
2013-01-28 15:19:00,50.7,43.0,29.11,SSW,195,9.0,33.0,75,0.00,,,0.00,weatherlink.com 1.10,2013-01-28 15:19:00,
2013-01-28 15:34:00,49.5,47.0,29.10,SW,224,5.0,21.0,90,0.00,,,0.00,weatherlink.com 1.10,2013-01-28 15:34:00,
2013-01-28 15:49:00,50.1,47.0,29.10,WSW,248,6.0,18.0,89,0.00,,,0.00,weatherlink.com 1.10,2013-01-28 15:49:00,
2013-01-28 16:04:00,51.7,44.0,29.11,West,264,23.0,23.0,75,0.00,,,0.00,weatherlink.com 1.10,2013-01-28 16:04:00,
2013-01-28 16:19:00,51.4,43.0,29.13,SW,228,5.0,23.0,73,0.00,,,0.00,weatherlink.com 1.10,2013-01-28 16:19:00,
2013-01-28 16:34:00,50.5,43.0,29.12,NW,318,2.0,20.0,76,0.00,,,0.00,weatherlink.com 1.10,2013-01-28 16:34:00,
2013-01-28 16:49:00,51.2,42.0,29.13,WNW,287,5.0,25.0,72,0.00,,,0.00,weatherlink.com 1.10,2013-01-28 16:49:00,
2013-01-28 17:04:00,51.6,42.0,29.14,West,262,12.0,20.0,71,0.00,,,0.00,weatherlink.com 1.10,2013-01-28 17:04:00,
2013-01-28 17:19:00,51.2,43.0,29.15,South,172,5.0,19.0,74,0.00,,,0.00,weatherlink.com 1.10,2013-01-28 17:19:00,
2013-01-28 17:34:00,51.6,42.0,29.16,WSW,255,13.0,31.0,69,0.00,,,0.00,weatherlink.com 1.10,2013-01-28 17:34:00,
2013-01-28 17:49:00,51.0,42.0,29.17,South,179,8.0,23.0,72,0.00,,,0.00,weatherlink.com 1.10,2013-01-28 17:49:00,
2013-01-28 18:04:00,51.1,42.0,29.17,WNW,288,12.0,27.0,72,0.00,,,0.00,weatherlink.com 1.10,2013-01-28 18:04:00,
2013-01-28 18:19:00,51.6,41.0,29.18,West,271,7.0,33.0,68,0.00,,,0.00,weatherlink.com 1.10,2013-01-28 18:19:00,
2013-01-28 18:34:00,51.3,41.0,29.18,WNW,284,8.0,27.0,68,0.00,,,0.00,weatherlink.com 1.10,2013-01-28 18:34:00,
2013-01-28 18:49:00,51.4,41.0,29.19,SSW,198,9.0,24.0,67,0.00,,,0.00,weatherlink.com 1.10,2013-01-28 18:49:00,
2013-01-28 19:04:00,51.3,41.0,29.20,SW,217,8.0,24.0,67,0.00,,,0.00,weatherlink.com 1.10,2013-01-28 19:04:00,
2013-01-28 19:19:00,51.1,41.0,29.20,WNW,293,6.0,29.0,68,0.00,,,0.00,weatherlink.com 1.10,2013-01-28 19:19:00,
2013-01-28 19:34:00,50.8,41.0,29.20,SW,226,11.0,31.0,70,0.00,,,0.00,weatherlink.com 1.10,2013-01-28 19:34:00,
2013-01-28 19:49:00,50.9,41.0,29.21,WSW,250,10.0,23.0,70,0.00,,,0.00,weatherlink.com 1.10,2013-01-28 19:49:00,
2013-01-28 20:04:00,50.6,41.0,29.22,SSW,207,12.0,25.0,70,0.00,,,0.00,weatherlink.com 1.10,2013-01-28 20:04:00,
2013-01-28 20:19:00,50.7,41.0,29.23,WSW,248,17.0,22.0,69,0.00,,,0.00,weatherlink.com 1.10,2013-01-28 20:19:00,
2013-01-28 20:34:00,50.7,41.0,29.24,WSW,250,6.0,27.0,69,0.00,,,0.00,weatherlink.com 1.10,2013-01-28 20:34:00,
2013-01-28 20:49:00,50.6,41.0,29.25,NW,311,10.0,20.0,69,0.00,,,0.00,weatherlink.com 1.10,2013-01-28 20:49:00,
2013-01-28 21:04:00,50.6,41.0,29.25,WSW,256,9.0,24.0,71,0.00,,,0.00,weatherlink.com 1.10,2013-01-28 21:04:00,
2013-01-28 21:19:00,50.6,41.0,29.25,WSW,249,7.0,23.0,70,0.00,,,0.00,weatherlink.com 1.10,2013-01-28 21:19:00,
2013-01-28 21:34:00,50.6,41.0,29.27,WSW,243,14.0,22.0,71,0.00,,,0.00,weatherlink.com 1.10,2013-01-28 21:34:00,
2013-01-28 21:49:00,50.5,42.0,29.28,SE,141,6.0,25.0,72,0.00,,,0.00,weatherlink.com 1.10,2013-01-28 21:49:00,
2013-01-28 22:04:00,50.4,42.0,29.29,West,271,15.0,26.0,73,0.00,,,0.00,weatherlink.com 1.10,2013-01-28 22:04:00,
2013-01-28 22:19:00,50.5,42.0,29.31,WSW,239,13.0,22.0,73,0.00,,,0.00,weatherlink.com 1.10,2013-01-28 22:19:00,
2013-01-28 22:34:00,50.4,42.0,29.32,North,4,6.0,26.0,74,0.00,,,0.00,weatherlink.com 1.10,2013-01-28 22:34:00,
2013-01-28 22:49:00,50.4,42.0,29.33,West,260,6.0,20.0,74,0.00,,,0.00,weatherlink.com 1.10,2013-01-28 22:49:00,
2013-01-28 23:04:00,50.4,42.0,29.34,NW,319,8.0,18.0,74,0.00,,,0.00,weatherlink.com 1.10,2013-01-28 23:04:00,
2013-01-28 23:19:00,50.3,42.0,29.35,WSW,253,7.0,24.0,74,0.00,,,0.00,weatherlink.com 1.10,2013-01-28 23:19:00,
2013-01-28 23:34:00,50.2,43.0,29.36,SE,139,5.0,25.0,75,0.00,,,0.00,weatherlink.com 1.10,2013-01-28 23:34:00,
2013-01-28 23:49:00,49.9,43.0,29.37,West,281,7.0,21.0,76,0.00,,,0.00,weatherlink.com 1.10,2013-01-28 23:49:00,